PWSweather.com
Personal Weather Stations
Station Observations
BC052CD
On, Kemptville, ON K0G 1J0

OnKemptville, ON K0G 1J0

Lat: 45.0173179, Lon: -75.6329355

Elevation: 295

Station Type: National Geographic 265NC

http://kerrentweather.ca

High Low Average
Temperature 5.9°F-14.5°C -9.6°F-23.1°C -5.5°F-20.8°C
Dew Point -8.2°F-22.3°C -25.3°F-31.8°C -20.1°F-28.9°C
Winds 9.5 mph 15.3 kmh 0.8 mph 1.3 kmh 5.0 mph N8.0 kmh N
Wind Gusts 21.0 mph33.8 kmh 5.6 mph9.0 kmh 14.0 mph22.5 kmh
Humidity 56% 42% 48%
Pressure 30.53 in1033.9 mb 30.15 in1021.0 mb -
Precipitation 0.00 in0.0 mm - -
Hour Temp Dew Point Humidity Winds Wind Gusts Pressure Precip Precip Rate Daily Precip Total
12:00 AM 5.9°F-14.5°C -8.2°F-22.3°C 51% 2.8 mph N4.5 kmh N 14.3 mph23.0 kmh 30.36 in1028.1 mb 0.00 in0.0 mm 0.00 in0.0 mm 0.00 in0.0 mm
12:15 AM 5.0°F-15.0°C -9.5°F-23.1°C 50% 5.6 mph N9.0 kmh N 15.1 mph24.3 kmh 30.36 in1028.1 mb 0.00 in0.0 mm 0.00 in0.0 mm 0.00 in0.0 mm
12:30 AM 4.5°F-15.3°C -10.4°F-23.6°C 49% 3.9 mph N6.3 kmh N 21.0 mph33.8 kmh 30.37 in1028.4 mb 0.00 in0.0 mm 0.00 in0.0 mm 0.00 in0.0 mm
12:45 AM 3.6°F-15.8°C -11.6°F-24.2°C 48% 5.6 mph N9.0 kmh N 17.1 mph27.5 kmh 30.38 in1028.8 mb 0.00 in0.0 mm 0.00 in0.0 mm 0.00 in0.0 mm
01:00 AM 2.3°F-16.5°C -13.2°F-25.1°C 47% 2.8 mph N4.5 kmh N 19.0 mph30.6 kmh 30.39 in1029.1 mb 0.00 in0.0 mm 0.00 in0.0 mm 0.00 in0.0 mm
01:15 AM 1.2°F-17.1°C -14.6°F-25.9°C 46% 6.7 mph N10.8 kmh N 13.4 mph21.6 kmh 30.40 in1029.5 mb 0.00 in0.0 mm 0.00 in0.0 mm 0.00 in0.0 mm
01:30 AM 0.3°F-17.6°C -15.4°F-26.3°C 46% 2.0 mph N3.2 kmh N 14.3 mph23.0 kmh 30.41 in1029.8 mb 0.00 in0.0 mm 0.00 in0.0 mm 0.00 in0.0 mm
01:45 AM -0.2°F-17.9°C -15.9°F-26.6°C 46% 4.8 mph N7.7 kmh N 18.2 mph29.3 kmh 30.42 in1030.1 mb 0.00 in0.0 mm 0.00 in0.0 mm 0.00 in0.0 mm
02:00 AM -0.9°F-18.3°C -17.0°F-27.2°C 45% 3.9 mph N6.3 kmh N 18.2 mph29.3 kmh 30.43 in1030.5 mb 0.00 in0.0 mm 0.00 in0.0 mm 0.00 in0.0 mm
02:15 AM -1.3°F-18.5°C -17.3°F-27.4°C 45% 4.8 mph N7.7 kmh N 10.3 mph16.6 kmh 30.43 in1030.5 mb 0.00 in0.0 mm 0.00 in0.0 mm 0.00 in0.0 mm
02:30 AM -2.0°F-18.9°C -18.0°F-27.8°C 45% 6.7 mph N10.8 kmh N 12.3 mph19.8 kmh 30.43 in1030.5 mb 0.00 in0.0 mm 0.00 in0.0 mm 0.00 in0.0 mm
02:45 AM -2.6°F-19.2°C -18.5°F-28.1°C 45% 4.8 mph N7.7 kmh N 16.2 mph26.1 kmh 30.44 in1030.8 mb 0.00 in0.0 mm 0.00 in0.0 mm 0.00 in0.0 mm
03:00 AM -3.1°F-19.5°C -19.4°F-28.6°C 44% 2.8 mph N4.5 kmh N 16.2 mph26.1 kmh 30.43 in1030.5 mb 0.00 in0.0 mm 0.00 in0.0 mm 0.00 in0.0 mm
03:15 AM -3.6°F-19.8°C -19.9°F-28.8°C 44% 2.8 mph N4.5 kmh N 9.5 mph15.3 kmh 30.44 in1030.8 mb 0.00 in0.0 mm 0.00 in0.0 mm 0.00 in0.0 mm
03:30 AM -3.5°F-19.7°C -19.7°F-28.7°C 44% 5.6 mph N9.0 kmh N 17.1 mph27.5 kmh 30.45 in1031.2 mb 0.00 in0.0 mm 0.00 in0.0 mm 0.00 in0.0 mm
03:45 AM -4.7°F-20.4°C -20.9°F-29.4°C 44% 2.8 mph N4.5 kmh N 9.5 mph15.3 kmh 30.45 in1031.2 mb 0.00 in0.0 mm 0.00 in0.0 mm 0.00 in0.0 mm
04:00 AM -5.4°F-20.8°C -22.4°F-30.2°C 42% 0.8 mph N1.3 kmh N 6.7 mph10.8 kmh 30.46 in1031.5 mb 0.00 in0.0 mm 0.00 in0.0 mm 0.00 in0.0 mm
04:15 AM -6.2°F-21.2°C -23.1°F-30.6°C 42% 2.8 mph N4.5 kmh N 9.5 mph15.3 kmh 30.46 in1031.5 mb 0.00 in0.0 mm 0.00 in0.0 mm 0.00 in0.0 mm
04:30 AM -6.9°F-21.6°C -23.7°F-30.9°C 42% 2.8 mph N4.5 kmh N 7.5 mph12.1 kmh 30.46 in1031.5 mb 0.00 in0.0 mm 0.00 in0.0 mm 0.00 in0.0 mm
04:45 AM -7.6°F-22.0°C -24.4°F-31.3°C 42% 0.8 mph N1.3 kmh N 11.5 mph18.5 kmh 30.46 in1031.5 mb 0.00 in0.0 mm 0.00 in0.0 mm 0.00 in0.0 mm
05:00 AM -8.0°F-22.2°C -24.7°F-31.5°C 42% 2.0 mph N3.2 kmh N 6.7 mph10.8 kmh 30.46 in1031.5 mb 0.00 in0.0 mm 0.00 in0.0 mm 0.00 in0.0 mm
05:15 AM -8.5°F-22.5°C -25.2°F-31.8°C 42% 2.8 mph N4.5 kmh N 5.6 mph9.0 kmh 30.47 in1031.8 mb 0.00 in0.0 mm 0.00 in0.0 mm 0.00 in0.0 mm
05:30 AM -8.9°F-22.7°C -24.7°F-31.5°C 44% 2.8 mph N4.5 kmh N 10.3 mph16.6 kmh 30.46 in1031.5 mb 0.00 in0.0 mm 0.00 in0.0 mm 0.00 in0.0 mm
05:45 AM -9.0°F-22.8°C -24.8°F-31.6°C 44% 2.8 mph N4.5 kmh N 7.5 mph12.1 kmh 30.46 in1031.5 mb 0.00 in0.0 mm 0.00 in0.0 mm 0.00 in0.0 mm
06:00 AM -9.4°F-23.0°C -25.2°F-31.8°C 44% 2.0 mph N3.2 kmh N 9.5 mph15.3 kmh 30.46 in1031.5 mb 0.00 in0.0 mm 0.00 in0.0 mm 0.00 in0.0 mm
06:15 AM -9.6°F-23.1°C -25.3°F-31.8°C 44% 2.0 mph N3.2 kmh N 7.5 mph12.1 kmh 30.46 in1031.5 mb 0.00 in0.0 mm 0.00 in0.0 mm 0.00 in0.0 mm
06:30 AM -9.6°F-23.1°C -24.9°F-31.6°C 45% 4.8 mph N7.7 kmh N 9.5 mph15.3 kmh 30.46 in1031.5 mb 0.00 in0.0 mm 0.00 in0.0 mm 0.00 in0.0 mm
06:45 AM -9.6°F-23.1°C -24.9°F-31.6°C 45% 2.0 mph N3.2 kmh N 8.7 mph14.0 kmh 30.47 in1031.8 mb 0.00 in0.0 mm 0.00 in0.0 mm 0.00 in0.0 mm
07:00 AM -9.4°F-23.0°C -24.8°F-31.6°C 45% 2.0 mph N3.2 kmh N 11.5 mph18.5 kmh 30.48 in1032.2 mb 0.00 in0.0 mm 0.00 in0.0 mm 0.00 in0.0 mm
07:15 AM -9.4°F-23.0°C -24.8°F-31.6°C 45% 5.6 mph N9.0 kmh N 10.3 mph16.6 kmh 30.48 in1032.2 mb 0.00 in0.0 mm 0.00 in0.0 mm 0.00 in0.0 mm
07:30 AM -9.4°F-23.0°C -24.8°F-31.6°C 45% 5.6 mph N9.0 kmh N 13.4 mph21.6 kmh 30.50 in1032.8 mb 0.00 in0.0 mm 0.00 in0.0 mm 0.00 in0.0 mm
07:45 AM -9.4°F-23.0°C -24.8°F-31.6°C 45% 2.8 mph N4.5 kmh N 14.3 mph23.0 kmh 30.50 in1032.8 mb 0.00 in0.0 mm 0.00 in0.0 mm 0.00 in0.0 mm
08:00 AM -9.4°F-23.0°C -24.8°F-31.6°C 45% 4.8 mph N7.7 kmh N 10.3 mph16.6 kmh 30.52 in1033.5 mb 0.00 in0.0 mm 0.00 in0.0 mm 0.00 in0.0 mm
08:15 AM -9.2°F-22.9°C -24.6°F-31.4°C 45% 2.0 mph N3.2 kmh N 7.5 mph12.1 kmh 30.52 in1033.5 mb 0.00 in0.0 mm 0.00 in0.0 mm 0.00 in0.0 mm
08:30 AM -8.9°F-22.7°C -24.3°F-31.3°C 45% 7.5 mph N12.1 kmh N 13.4 mph21.6 kmh 30.53 in1033.9 mb 0.00 in0.0 mm 0.00 in0.0 mm 0.00 in0.0 mm
08:45 AM -8.7°F-22.6°C -24.1°F-31.2°C 45% 5.6 mph N9.0 kmh N 13.4 mph21.6 kmh 30.53 in1033.9 mb 0.00 in0.0 mm 0.00 in0.0 mm 0.00 in0.0 mm
09:00 AM -8.5°F-22.5°C -23.9°F-31.1°C 45% 5.6 mph N9.0 kmh N 13.4 mph21.6 kmh 30.52 in1033.5 mb 0.00 in0.0 mm 0.00 in0.0 mm 0.00 in0.0 mm
09:15 AM -8.5°F-22.5°C -23.9°F-31.1°C 45% 5.6 mph N9.0 kmh N 14.3 mph23.0 kmh 30.53 in1033.9 mb 0.00 in0.0 mm 0.00 in0.0 mm 0.00 in0.0 mm
09:30 AM -8.3°F-22.4°C -24.2°F-31.2°C 44% 3.9 mph N6.3 kmh N 11.5 mph18.5 kmh 30.53 in1033.9 mb 0.00 in0.0 mm 0.00 in0.0 mm 0.00 in0.0 mm
09:45 AM -8.0°F-22.2°C -23.4°F-30.8°C 45% 6.7 mph N10.8 kmh N 12.3 mph19.8 kmh 30.52 in1033.5 mb 0.00 in0.0 mm 0.00 in0.0 mm 0.00 in0.0 mm
10:00 AM -7.8°F-22.1°C -23.7°F-30.9°C 44% 0.8 mph N1.3 kmh N 12.3 mph19.8 kmh 30.52 in1033.5 mb 0.00 in0.0 mm 0.00 in0.0 mm 0.00 in0.0 mm
10:15 AM -7.2°F-21.8°C -22.8°F-30.4°C 45% 3.9 mph N6.3 kmh N 9.5 mph15.3 kmh 30.52 in1033.5 mb 0.00 in0.0 mm 0.00 in0.0 mm 0.00 in0.0 mm
10:30 AM -6.9°F-21.6°C -22.4°F-30.2°C 45% 5.6 mph N9.0 kmh N 12.3 mph19.8 kmh 30.53 in1033.9 mb 0.00 in0.0 mm 0.00 in0.0 mm 0.00 in0.0 mm
10:45 AM -6.9°F-21.6°C -22.9°F-30.5°C 44% 3.9 mph N6.3 kmh N 11.5 mph18.5 kmh 30.52 in1033.5 mb 0.00 in0.0 mm 0.00 in0.0 mm 0.00 in0.0 mm
11:00 AM -6.5°F-21.4°C -22.1°F-30.1°C 45% 5.6 mph N9.0 kmh N 12.3 mph19.8 kmh 30.51 in1033.2 mb 0.00 in0.0 mm 0.00 in0.0 mm 0.00 in0.0 mm
11:15 AM -6.0°F-21.1°C -22.0°F-30.0°C 44% 5.6 mph N9.0 kmh N 12.3 mph19.8 kmh 30.49 in1032.5 mb 0.00 in0.0 mm 0.00 in0.0 mm 0.00 in0.0 mm
11:30 AM -5.6°F-20.9°C -21.3°F-29.6°C 45% 4.8 mph N7.7 kmh N 15.1 mph24.3 kmh 30.48 in1032.2 mb 0.00 in0.0 mm 0.00 in0.0 mm 0.00 in0.0 mm
11:45 AM -5.3°F-20.7°C -21.4°F-29.7°C 44% 5.6 mph N9.0 kmh N 10.3 mph16.6 kmh 30.48 in1032.2 mb 0.00 in0.0 mm 0.00 in0.0 mm 0.00 in0.0 mm
12:00 PM -4.9°F-20.5°C -21.1°F-29.5°C 44% 4.8 mph N7.7 kmh N 11.5 mph18.5 kmh 30.47 in1031.8 mb 0.00 in0.0 mm 0.00 in0.0 mm 0.00 in0.0 mm
12:15 PM -4.9°F-20.5°C -21.1°F-29.5°C 44% 3.9 mph N6.3 kmh N 12.3 mph19.8 kmh 30.46 in1031.5 mb 0.00 in0.0 mm 0.00 in0.0 mm 0.00 in0.0 mm
12:30 PM -4.7°F-20.4°C -20.9°F-29.4°C 44% 3.9 mph N6.3 kmh N 15.1 mph24.3 kmh 30.43 in1030.5 mb 0.00 in0.0 mm 0.00 in0.0 mm 0.00 in0.0 mm
12:45 PM -4.7°F-20.4°C -20.9°F-29.4°C 44% 4.8 mph N7.7 kmh N 14.3 mph23.0 kmh 30.43 in1030.5 mb 0.00 in0.0 mm 0.00 in0.0 mm 0.00 in0.0 mm
01:00 PM -4.5°F-20.3°C -20.3°F-29.1°C 45% 7.5 mph N12.1 kmh N 17.1 mph27.5 kmh 30.41 in1029.8 mb 0.00 in0.0 mm 0.00 in0.0 mm 0.00 in0.0 mm
01:15 PM -4.0°F-20.0°C -19.8°F-28.8°C 45% 6.7 mph N10.8 kmh N 12.3 mph19.8 kmh 30.40 in1029.5 mb 0.00 in0.0 mm 0.00 in0.0 mm 0.00 in0.0 mm
01:30 PM -3.6°F-19.8°C -19.5°F-28.6°C 45% 8.7 mph N14.0 kmh N 15.1 mph24.3 kmh 30.41 in1029.8 mb 0.00 in0.0 mm 0.00 in0.0 mm 0.00 in0.0 mm
01:45 PM -3.6°F-19.8°C -19.5°F-28.6°C 45% 5.6 mph N9.0 kmh N 13.4 mph21.6 kmh 30.41 in1029.8 mb 0.00 in0.0 mm 0.00 in0.0 mm 0.00 in0.0 mm
02:00 PM -3.6°F-19.8°C -19.5°F-28.6°C 45% 5.6 mph N9.0 kmh N 16.2 mph26.1 kmh 30.40 in1029.5 mb 0.00 in0.0 mm 0.00 in0.0 mm 0.00 in0.0 mm
02:15 PM -3.5°F-19.7°C -19.3°F-28.5°C 45% 4.8 mph N7.7 kmh N 16.2 mph26.1 kmh 30.39 in1029.1 mb 0.00 in0.0 mm 0.00 in0.0 mm 0.00 in0.0 mm
02:30 PM -3.1°F-19.5°C -18.6°F-28.1°C 46% 5.6 mph N9.0 kmh N 16.2 mph26.1 kmh 30.40 in1029.5 mb 0.00 in0.0 mm 0.00 in0.0 mm 0.00 in0.0 mm
02:45 PM -3.3°F-19.6°C -18.7°F-28.2°C 46% 5.6 mph N9.0 kmh N 15.1 mph24.3 kmh 30.41 in1029.8 mb 0.00 in0.0 mm 0.00 in0.0 mm 0.00 in0.0 mm
03:15 PM -3.6°F-19.8°C -18.6°F-28.1°C 47% 5.6 mph N9.0 kmh N 12.3 mph19.8 kmh 30.40 in1029.5 mb 0.00 in0.0 mm 0.00 in0.0 mm 0.00 in0.0 mm
03:30 PM -3.8°F-19.9°C -18.4°F-28.0°C 48% 4.8 mph N7.7 kmh N 11.5 mph18.5 kmh 30.41 in1029.8 mb 0.00 in0.0 mm 0.00 in0.0 mm 0.00 in0.0 mm
03:45 PM -4.2°F-20.1°C -18.7°F-28.2°C 48% 4.8 mph N7.7 kmh N 14.3 mph23.0 kmh 30.40 in1029.5 mb 0.00 in0.0 mm 0.00 in0.0 mm 0.00 in0.0 mm
04:00 PM -4.7°F-20.4°C -18.8°F-28.2°C 49% 5.6 mph N9.0 kmh N 15.1 mph24.3 kmh 30.39 in1029.1 mb 0.00 in0.0 mm 0.00 in0.0 mm 0.00 in0.0 mm
04:15 PM -4.9°F-20.5°C -19.0°F-28.3°C 49% 8.7 mph N14.0 kmh N 17.1 mph27.5 kmh 30.39 in1029.1 mb 0.00 in0.0 mm 0.00 in0.0 mm 0.00 in0.0 mm
04:30 PM -5.3°F-20.7°C -19.3°F-28.5°C 49% 7.5 mph N12.1 kmh N 16.2 mph26.1 kmh 30.38 in1028.8 mb 0.00 in0.0 mm 0.00 in0.0 mm 0.00 in0.0 mm
04:45 PM -5.6°F-20.9°C -19.3°F-28.5°C 50% 5.6 mph N9.0 kmh N 14.3 mph23.0 kmh 30.39 in1029.1 mb 0.00 in0.0 mm 0.00 in0.0 mm 0.00 in0.0 mm
05:00 PM -4.7°F-20.4°C -18.4°F-28.0°C 50% 6.7 mph N10.8 kmh N 14.3 mph23.0 kmh 30.38 in1028.8 mb 0.00 in0.0 mm 0.00 in0.0 mm 0.00 in0.0 mm
05:15 PM -6.0°F-21.1°C -19.6°F-28.7°C 50% 6.7 mph N10.8 kmh N 11.5 mph18.5 kmh 30.37 in1028.4 mb 0.00 in0.0 mm 0.00 in0.0 mm 0.00 in0.0 mm
05:30 PM -6.2°F-21.2°C -19.4°F-28.6°C 51% 6.7 mph N10.8 kmh N 14.3 mph23.0 kmh 30.36 in1028.1 mb 0.00 in0.0 mm 0.00 in0.0 mm 0.00 in0.0 mm
05:45 PM -6.3°F-21.3°C -19.6°F-28.7°C 51% 6.7 mph N10.8 kmh N 10.3 mph16.6 kmh 30.36 in1028.1 mb 0.00 in0.0 mm 0.00 in0.0 mm 0.00 in0.0 mm
06:00 PM -6.5°F-21.4°C -19.7°F-28.7°C 51% 4.8 mph N7.7 kmh N 17.1 mph27.5 kmh 30.34 in1027.4 mb 0.00 in0.0 mm 0.00 in0.0 mm 0.00 in0.0 mm
06:15 PM -6.5°F-21.4°C -19.0°F-28.3°C 53% 4.8 mph N7.7 kmh N 10.3 mph16.6 kmh 30.34 in1027.4 mb 0.00 in0.0 mm 0.00 in0.0 mm 0.00 in0.0 mm
06:30 PM -6.5°F-21.4°C -19.0°F-28.3°C 53% 6.7 mph N10.8 kmh N 16.2 mph26.1 kmh 30.34 in1027.4 mb 0.00 in0.0 mm 0.00 in0.0 mm 0.00 in0.0 mm
06:45 PM -6.5°F-21.4°C -19.0°F-28.3°C 53% 4.8 mph N7.7 kmh N 14.3 mph23.0 kmh 30.33 in1027.1 mb 0.00 in0.0 mm 0.00 in0.0 mm 0.00 in0.0 mm
07:00 PM -6.5°F-21.4°C -19.0°F-28.3°C 53% 4.8 mph N7.7 kmh N 13.4 mph21.6 kmh 30.31 in1026.4 mb 0.00 in0.0 mm 0.00 in0.0 mm 0.00 in0.0 mm
07:15 PM -5.8°F-21.0°C -18.3°F-27.9°C 53% 6.7 mph N10.8 kmh N 12.3 mph19.8 kmh 30.31 in1026.4 mb 0.00 in0.0 mm 0.00 in0.0 mm 0.00 in0.0 mm
07:30 PM -6.5°F-21.4°C -18.6°F-28.1°C 54% 8.7 mph N14.0 kmh N 15.1 mph24.3 kmh 30.30 in1026.1 mb 0.00 in0.0 mm 0.00 in0.0 mm 0.00 in0.0 mm
07:45 PM -6.7°F-21.5°C -18.8°F-28.2°C 54% 6.7 mph N10.8 kmh N 14.3 mph23.0 kmh 30.29 in1025.7 mb 0.00 in0.0 mm 0.00 in0.0 mm 0.00 in0.0 mm
08:00 PM -6.7°F-21.5°C -18.8°F-28.2°C 54% 5.6 mph N9.0 kmh N 13.4 mph21.6 kmh 30.29 in1025.7 mb 0.00 in0.0 mm 0.00 in0.0 mm 0.00 in0.0 mm
08:15 PM -6.9°F-21.6°C -19.0°F-28.3°C 54% 5.6 mph N9.0 kmh N 16.2 mph26.1 kmh 30.29 in1025.7 mb 0.00 in0.0 mm 0.00 in0.0 mm 0.00 in0.0 mm
08:30 PM -6.9°F-21.6°C -19.0°F-28.3°C 54% 3.9 mph N6.3 kmh N 15.1 mph24.3 kmh 30.27 in1025.1 mb 0.00 in0.0 mm 0.00 in0.0 mm 0.00 in0.0 mm
08:45 PM -7.1°F-21.7°C -18.8°F-28.2°C 55% 8.7 mph N14.0 kmh N 19.9 mph32.0 kmh 30.27 in1025.1 mb 0.00 in0.0 mm 0.00 in0.0 mm 0.00 in0.0 mm
09:00 PM -7.1°F-21.7°C -18.8°F-28.2°C 55% 9.5 mph N15.3 kmh N 18.2 mph29.3 kmh 30.25 in1024.4 mb 0.00 in0.0 mm 0.00 in0.0 mm 0.00 in0.0 mm
09:15 PM -7.1°F-21.7°C -18.8°F-28.2°C 55% 8.7 mph N14.0 kmh N 15.1 mph24.3 kmh 30.25 in1024.4 mb 0.00 in0.0 mm 0.00 in0.0 mm 0.00 in0.0 mm
09:30 PM -7.1°F-21.7°C -18.8°F-28.2°C 55% 5.6 mph N9.0 kmh N 16.2 mph26.1 kmh 30.25 in1024.4 mb 0.00 in0.0 mm 0.00 in0.0 mm 0.00 in0.0 mm
09:45 PM -7.1°F-21.7°C -18.8°F-28.2°C 55% 8.7 mph N14.0 kmh N 18.2 mph29.3 kmh 30.23 in1023.7 mb 0.00 in0.0 mm 0.00 in0.0 mm 0.00 in0.0 mm
10:00 PM -6.9°F-21.6°C -18.3°F-27.9°C 56% 7.5 mph N12.1 kmh N 18.2 mph29.3 kmh 30.23 in1023.7 mb 0.00 in0.0 mm 0.00 in0.0 mm 0.00 in0.0 mm
10:15 PM -6.9°F-21.6°C -18.3°F-27.9°C 56% 5.6 mph N9.0 kmh N 13.4 mph21.6 kmh 30.22 in1023.4 mb 0.00 in0.0 mm 0.00 in0.0 mm 0.00 in0.0 mm
10:30 PM -6.9°F-21.6°C -18.3°F-27.9°C 56% 4.8 mph N7.7 kmh N 15.1 mph24.3 kmh 30.20 in1022.7 mb 0.00 in0.0 mm 0.00 in0.0 mm 0.00 in0.0 mm
10:45 PM -6.7°F-21.5°C -18.1°F-27.8°C 56% 8.7 mph N14.0 kmh N 18.2 mph29.3 kmh 30.19 in1022.4 mb 0.00 in0.0 mm 0.00 in0.0 mm 0.00 in0.0 mm
11:00 PM -6.7°F-21.5°C -18.1°F-27.8°C 56% 7.5 mph N12.1 kmh N 13.4 mph21.6 kmh 30.18 in1022.0 mb 0.00 in0.0 mm 0.00 in0.0 mm 0.00 in0.0 mm
11:15 PM -6.7°F-21.5°C -18.1°F-27.8°C 56% 4.8 mph N7.7 kmh N 16.2 mph26.1 kmh 30.17 in1021.7 mb 0.00 in0.0 mm 0.00 in0.0 mm 0.00 in0.0 mm
11:30 PM -6.7°F-21.5°C -18.1°F-27.8°C 56% 7.5 mph N12.1 kmh N 18.2 mph29.3 kmh 30.15 in1021.0 mb 0.00 in0.0 mm 0.00 in0.0 mm 0.00 in0.0 mm
11:45 PM -6.7°F-21.5°C -18.1°F-27.8°C 56% 5.6 mph N9.0 kmh N 16.2 mph26.1 kmh 30.15 in1021.0 mb 0.00 in0.0 mm 0.00 in0.0 mm 0.00 in0.0 mm